Time;durP1;ratioP1;P1;durP2;ratioP2;P2;SDS_P1;SDS_P2;PMS_P1;PMS_P2;Temp;Humidity;BMP_temperature;BMP_pressure;BME280_temperature;BME280_humidity;BME280_pressure;Samples;Min_cycle;Max_cycle;Signal;HPM_P1;HPM_P2
2023/07/18 00:00:30;;;;;;;5.32;1.67;;;;;;;13.80;81.96;102027.50;5081152;28;20450;-69
2023/07/18 00:02:56;;;;;;;3.60;1.73;;;;;;;13.79;82.25;102029.38;5078288;28;20038;-68
2023/07/18 00:05:22;;;;;;;3.25;2.20;;;;;;;13.77;82.95;102025.00;5075364;28;20064;-69
2023/07/18 00:07:48;;;;;;;7.13;2.83;;;;;;;13.75;82.76;102035.16;5068532;28;20047;-69
2023/07/18 00:10:13;;;;;;;2.40;1.88;;;;;;;13.75;82.90;102030.56;5069344;28;20345;-69
2023/07/18 00:12:40;;;;;;;6.30;2.40;;;;;;;13.71;82.77;102031.75;5075914;28;20036;-69
2023/07/18 00:15:07;;;;;;;6.90;2.08;;;;;;;13.65;83.12;102031.28;5090384;28;20016;-69
2023/07/18 00:17:33;;;;;;;3.47;1.98;;;;;;;13.58;83.13;102030.81;5070559;28;20036;-68
2023/07/18 00:20:00;;;;;;;3.67;2.20;;;;;;;13.51;82.38;102032.19;5077761;28;20082;-69
2023/07/18 00:22:25;;;;;;;6.28;2.22;;;;;;;13.49;82.73;102035.03;5090112;28;20027;-69
2023/07/18 00:24:50;;;;;;;3.90;2.03;;;;;;;13.47;82.81;102033.38;5071983;28;20025;-69
2023/07/18 00:27:16;;;;;;;6.20;2.10;;;;;;;13.44;81.92;102034.47;5067652;28;20542;-69
2023/07/18 00:29:42;;;;;;;4.40;2.28;;;;;;;13.41;82.19;102033.78;5077644;28;20392;-69
2023/07/18 00:32:07;;;;;;;3.30;2.10;;;;;;;13.36;83.06;102035.94;5073064;28;20193;-68
2023/07/18 00:34:33;;;;;;;5.47;2.40;;;;;;;13.32;83.00;102042.56;5067855;28;20452;-69
2023/07/18 00:36:58;;;;;;;4.82;2.72;;;;;;;13.34;83.24;102035.16;5068632;28;20470;-69
2023/07/18 00:39:24;;;;;;;5.07;2.55;;;;;;;13.28;83.68;102036.41;5075933;28;20083;-69
2023/07/18 00:41:49;;;;;;;6.55;2.40;;;;;;;13.27;83.88;102041.00;5089342;28;20383;-69
2023/07/18 00:44:15;;;;;;;7.72;3.13;;;;;;;13.25;83.53;102031.19;5089597;28;20024;-69
2023/07/18 00:46:40;;;;;;;4.57;2.33;;;;;;;13.23;84.09;102033.13;5074976;28;20104;-69
2023/07/18 00:49:08;;;;;;;10.43;3.30;;;;;;;13.22;86.22;102036.81;5067838;28;20440;-69
2023/07/18 00:51:33;;;;;;;5.63;2.63;;;;;;;13.17;85.42;102028.03;5069161;28;20427;-69
2023/07/18 00:53:59;;;;;;;5.65;2.53;;;;;;;13.15;85.49;102025.41;5073663;28;20115;-69
2023/07/18 00:56:24;;;;;;;6.70;3.20;;;;;;;13.19;84.90;102031.50;5088117;28;20020;-68
2023/07/18 00:58:52;;;;;;;8.02;3.00;;;;;;;13.14;84.86;102020.00;5073348;28;20550;-68
2023/07/18 01:01:18;;;;;;;5.55;2.60;;;;;;;13.10;85.55;102024.78;5076055;28;20063;-68
2023/07/18 01:03:44;;;;;;;7.15;3.10;;;;;;;13.08;84.67;102020.41;5089197;28;20020;-69
2023/07/18 01:06:09;;;;;;;4.47;3.00;;;;;;;13.05;84.78;102028.78;5051226;28;20501;-69
2023/07/18 01:08:35;;;;;;;4.80;3.03;;;;;;;13.00;84.97;102020.88;5075451;28;20056;-69
2023/07/18 01:11:01;;;;;;;7.40;2.85;;;;;;;12.95;85.15;102026.66;5088482;28;20032;-69
2023/07/18 01:13:27;;;;;;;4.50;2.63;;;;;;;12.92;84.32;102020.53;5072315;28;20139;-69
2023/07/18 01:15:52;;;;;;;7.53;4.03;;;;;;;12.90;85.75;102023.34;5073323;28;20110;-68
2023/07/18 01:18:18;;;;;;;4.07;2.35;;;;;;;12.87;85.14;102026.28;5089053;28;20051;-68
2023/07/18 01:20:45;;;;;;;4.25;2.45;;;;;;;12.83;84.72;102027.44;5085205;28;20028;-68
2023/07/18 01:23:11;;;;;;;8.35;3.33;;;;;;;12.83;84.18;102021.09;5087173;28;20093;-68
2023/07/18 01:25:37;;;;;;;6.72;2.90;;;;;;;12.76;85.06;102017.88;5068704;28;20036;-68
2023/07/18 01:28:03;;;;;;;5.05;2.33;;;;;;;12.72;84.58;102003.53;5067682;28;20044;-69
2023/07/18 01:30:30;;;;;;;6.03;3.58;;;;;;;12.70;85.76;102004.59;5086719;28;20031;-69
2023/07/18 01:32:56;;;;;;;8.15;2.97;;;;;;;12.66;85.13;102001.19;5089494;28;20047;-68
2023/07/18 01:35:23;;;;;;;3.08;2.28;;;;;;;12.64;84.81;102011.34;5084846;28;20061;-68
2023/07/18 01:37:49;;;;;;;5.50;2.67;;;;;;;12.64;85.13;102013.19;5086616;28;20044;-68
2023/07/18 01:40:20;;;;;;;4.60;2.80;;;;;;;12.63;85.53;101998.63;5084500;28;20048;-69
2023/07/18 01:42:51;;;;;;;5.38;2.78;;;;;;;12.63;85.11;102003.22;5087129;28;20036;-69
2023/07/18 01:45:18;;;;;;;5.35;2.83;;;;;;;12.62;85.56;102001.47;5086531;28;20039;-69
2023/07/18 01:47:43;;;;;;;6.68;2.85;;;;;;;12.59;85.32;101994.38;5067917;28;20484;-69
2023/07/18 01:50:10;;;;;;;4.32;2.80;;;;;;;12.57;86.48;101995.44;5066027;28;20388;-68
2023/07/18 01:52:36;;;;;;;7.50;3.58;;;;;;;12.54;86.53;101985.56;5066312;28;20040;-68
2023/07/18 01:55:04;;;;;;;5.75;3.40;;;;;;;12.48;86.89;101984.09;5066155;28;20118;-69
2023/07/18 01:57:36;;;;;;;6.43;2.65;;;;;;;12.45;86.67;101994.31;5065165;28;20036;-68
2023/07/18 02:00:03;;;;;;;8.27;3.03;;;;;;;12.46;86.92;101988.78;5068097;28;20423;-69
2023/07/18 02:02:39;;;;;;;5.85;3.13;;;;;;;12.49;85.74;101991.31;5068981;28;20134;-69
2023/07/18 02:05:07;;;;;;;7.05;3.13;;;;;;;12.48;86.96;101984.09;5074807;28;20032;-69
2023/07/18 02:07:33;;;;;;;10.38;3.85;;;;;;;12.48;86.17;101970.44;5084791;28;20028;-68
2023/07/18 02:10:01;;;;;;;4.43;2.92;;;;;;;12.53;87.09;101978.34;5087187;28;20452;-69
2023/07/18 02:12:27;;;;;;;6.30;3.08;;;;;;;12.49;87.16;101972.19;5078328;28;20028;-68
2023/07/18 02:14:53;;;;;;;6.18;3.30;;;;;;;12.49;86.72;101977.66;5063928;28;20028;-68
2023/07/18 02:17:18;;;;;;;5.40;3.40;;;;;;;12.48;87.07;101973.19;5066270;28;20036;-69
2023/07/18 02:19:44;;;;;;;5.85;3.13;;;;;;;12.50;86.30;101978.56;5068525;28;20032;-69
2023/07/18 02:22:09;;;;;;;5.88;3.15;;;;;;;12.47;87.28;101970.56;5066137;28;20036;-69
2023/07/18 02:24:35;;;;;;;8.20;3.08;;;;;;;12.48;86.37;101980.50;5065325;28;20044;-68
2023/07/18 02:27:02;;;;;;;7.72;3.00;;;;;;;12.47;87.93;101976.88;5072461;28;20036;-69
2023/07/18 02:29:28;;;;;;;6.60;4.40;;;;;;;12.46;87.84;101975.16;5067879;28;20027;-69
2023/07/18 02:31:53;;;;;;;7.72;3.70;;;;;;;12.47;87.54;101973.28;5071167;28;20033;-68
2023/07/18 02:34:19;;;;;;;5.43;3.45;;;;;;;12.43;87.28;101978.06;5068608;28;20035;-68
2023/07/18 02:36:45;;;;;;;6.00;3.17;;;;;;;12.41;86.81;101977.28;5064098;28;20519;-68
2023/07/18 02:39:10;;;;;;;5.80;3.42;;;;;;;12.40;87.35;101981.00;5064038;28;20162;-69
2023/07/18 02:41:37;;;;;;;10.85;4.20;;;;;;;12.36;88.22;101963.03;5067536;28;20020;-69
2023/07/18 02:44:04;;;;;;;7.72;3.33;;;;;;;12.32;87.52;101968.78;5066390;28;20029;-69
2023/07/18 02:46:31;;;;;;;7.03;3.20;;;;;;;12.29;88.31;101971.69;5066417;28;20416;-69
2023/07/18 02:48:56;;;;;;;5.97;3.17;;;;;;;12.24;87.03;101970.13;5059651;28;20127;-69
2023/07/18 02:51:22;;;;;;;7.50;3.53;;;;;;;12.25;87.87;101968.28;5065988;28;20028;-69
2023/07/18 02:53:49;;;;;;;5.72;3.33;;;;;;;12.21;87.80;101973.03;5064883;28;20110;-68
2023/07/18 02:56:16;;;;;;;8.80;3.47;;;;;;;12.17;88.69;101974.22;5063245;28;20028;-69
2023/07/18 02:58:41;;;;;;;6.43;3.10;;;;;;;12.10;88.86;101970.09;5064488;28;20584;-69
2023/07/18 03:01:07;;;;;;;6.70;3.67;;;;;;;12.06;89.13;101970.38;5071850;28;20064;-68
2023/07/18 03:03:38;;;;;;;7.40;3.78;;;;;;;12.01;88.91;101967.91;5065752;28;20496;-68
2023/07/18 03:06:04;;;;;;;9.20;3.35;;;;;;;11.97;88.25;101969.06;5065778;28;20036;-69
2023/07/18 03:08:32;;;;;;;6.13;3.58;;;;;;;11.95;89.07;101971.03;5069296;28;20039;-69
2023/07/18 03:11:00;;;;;;;7.25;3.33;;;;;;;11.93;88.73;101971.09;5065828;28;20111;-69
2023/07/18 03:13:27;;;;;;;7.22;3.60;;;;;;;11.91;89.51;101961.28;5053699;28;20140;-68
2023/07/18 03:15:54;;;;;;;8.30;3.80;;;;;;;11.92;89.07;101968.47;5069216;28;20478;-68
2023/07/18 03:18:20;;;;;;;7.03;3.58;;;;;;;11.91;89.08;101972.19;5070703;28;20044;-69
2023/07/18 03:20:45;;;;;;;4.47;3.20;;;;;;;11.88;89.88;101978.69;5065088;28;20035;-69
2023/07/18 03:23:10;;;;;;;9.10;3.45;;;;;;;11.86;89.08;101977.03;5064656;28;20441;-69
2023/07/18 03:25:36;;;;;;;4.80;3.20;;;;;;;11.82;89.08;101968.16;5065261;28;20059;-69
2023/07/18 03:28:01;;;;;;;6.07;3.45;;;;;;;11.80;88.84;101967.34;5064332;28;20044;-69
2023/07/18 03:30:26;;;;;;;8.40;4.07;;;;;;;11.78;90.55;101972.00;5067143;28;20044;-69
2023/07/18 03:32:53;;;;;;;6.97;3.35;;;;;;;11.75;90.04;101970.34;5085887;28;20038;-68
2023/07/18 03:35:18;;;;;;;6.93;3.65;;;;;;;11.70;89.42;101969.75;5085233;28;20111;-69
2023/07/18 03:37:43;;;;;;;9.95;3.40;;;;;;;11.69;88.98;101970.69;5086388;28;20110;-68
2023/07/18 03:40:10;;;;;;;7.90;3.20;;;;;;;11.66;88.75;101975.47;5084635;28;20040;-69
2023/07/18 03:42:36;;;;;;;4.07;3.13;;;;;;;11.61;89.58;101969.38;5086629;28;20099;-69
2023/07/18 03:45:02;;;;;;;7.00;3.40;;;;;;;11.63;88.88;101967.47;5074318;28;20052;-69
2023/07/18 03:47:28;;;;;;;8.43;3.50;;;;;;;11.64;88.41;101969.22;5085086;28;20142;-69
2023/07/18 03:49:53;;;;;;;5.47;2.97;;;;;;;11.64;87.77;101975.53;5074859;28;20110;-69
2023/07/18 03:52:18;;;;;;;5.57;2.97;;;;;;;11.62;90.07;101968.44;5086103;28;20389;-69
2023/07/18 03:54:45;;;;;;;8.10;3.40;;;;;;;11.63;88.77;101971.06;5085810;28;20040;-69
2023/07/18 03:57:11;;;;;;;7.65;3.30;;;;;;;11.59;89.02;101966.75;5084869;28;20380;-69
2023/07/18 03:59:36;;;;;;;7.45;2.80;;;;;;;11.61;88.39;101974.81;5086533;28;20396;-69
2023/07/18 04:02:01;;;;;;;5.18;3.42;;;;;;;11.61;88.89;101964.84;5071470;28;20020;-69
2023/07/18 04:04:27;;;;;;;4.38;2.80;;;;;;;11.60;89.12;101963.06;5065555;28;20483;-69
2023/07/18 04:06:52;;;;;;;8.07;2.83;;;;;;;11.61;89.25;101959.38;5065901;28;20038;-69
2023/07/18 04:09:19;;;;;;;6.43;2.85;;;;;;;11.59;89.06;101954.97;5065999;28;20044;-69
2023/07/18 04:11:46;;;;;;;4.07;3.00;;;;;;;11.58;88.73;101954.09;5078361;28;20476;-69
2023/07/18 04:14:12;;;;;;;5.03;3.40;;;;;;;11.61;89.96;101948.47;5076678;28;20452;-69
2023/07/18 04:16:37;;;;;;;7.05;2.88;;;;;;;11.62;89.23;101941.19;5075598;28;20111;-69
2023/07/18 04:19:03;;;;;;;9.65;3.55;;;;;;;11.65;89.70;101943.69;5083904;28;20028;-68
2023/07/18 04:21:29;;;;;;;4.78;2.85;;;;;;;11.66;89.48;101948.22;5067567;28;20177;-69
2023/07/18 04:23:54;;;;;;;6.63;3.30;;;;;;;11.69;89.37;101937.09;5072257;28;20046;-69
2023/07/18 04:26:20;;;;;;;9.63;3.08;;;;;;;11.73;88.60;101944.13;5088819;28;20498;-69
2023/07/18 04:28:45;;;;;;;5.40;2.60;;;;;;;11.69;89.90;101932.53;5089054;28;20032;-69
2023/07/18 04:31:13;;;;;;;4.95;2.65;;;;;;;11.70;89.10;101938.84;5080652;28;20031;-69
2023/07/18 04:33:39;;;;;;;5.03;2.92;;;;;;;11.73;88.81;101945.00;5069732;28;20068;-69
2023/07/18 04:36:06;;;;;;;4.78;2.90;;;;;;;11.77;88.97;101937.53;5085262;28;20071;-69
2023/07/18 04:38:31;;;;;;;6.82;2.88;;;;;;;11.81;88.66;101933.66;5089482;28;20036;-69
2023/07/18 04:40:56;;;;;;;7.43;2.70;;;;;;;11.81;89.18;101933.66;5089861;28;20047;-68
2023/07/18 04:43:22;;;;;;;7.93;2.80;;;;;;;11.81;90.41;101930.06;5088695;28;20035;-70
2023/07/18 04:45:48;;;;;;;7.38;2.97;;;;;;;11.84;88.92;101932.59;5084918;28;20052;-69
2023/07/18 04:48:14;;;;;;;7.40;2.72;;;;;;;11.85;89.31;101929.81;5069449;28;20036;-69
2023/07/18 04:50:41;;;;;;;6.47;3.10;;;;;;;11.82;89.67;101923.63;5074897;28;20040;-69
2023/07/18 04:53:07;;;;;;;6.35;3.03;;;;;;;11.87;89.66;101946.06;5068983;28;20129;-69
2023/07/18 04:55:34;;;;;;;12.45;4.47;;;;;;;11.90;90.04;101933.13;5068917;28;20032;-69
2023/07/18 04:58:01;;;;;;;7.93;3.58;;;;;;;11.92;90.00;101935.75;5069252;28;20060;-69
2023/07/18 05:00:28;;;;;;;8.38;3.08;;;;;;;11.95;89.63;101938.31;5069652;28;20464;-69
2023/07/18 05:02:53;;;;;;;8.75;3.00;;;;;;;12.02;89.96;101933.34;5050051;28;20040;-69
2023/07/18 05:05:19;;;;;;;4.75;3.30;;;;;;;12.09;89.39;101921.97;5059563;28;20484;-69
2023/07/18 05:07:46;;;;;;;6.65;2.85;;;;;;;12.13;88.11;101922.66;5068485;28;20040;-69
2023/07/18 05:10:12;;;;;;;9.10;3.50;;;;;;;12.17;88.76;101924.19;5068484;28;20435;-69
2023/07/18 05:12:38;;;;;;;5.70;3.08;;;;;;;12.20;89.23;101926.75;5075908;28;20111;-69
2023/07/18 05:15:04;;;;;;;7.60;3.25;;;;;;;12.22;88.12;101933.00;5089201;28;20044;-68
2023/07/18 05:17:30;;;;;;;8.85;3.90;;;;;;;12.26;89.37;101934.56;5070488;28;20039;-69
2023/07/18 05:19:55;;;;;;;6.35;3.90;;;;;;;12.32;88.83;101927.84;5075970;28;20040;-69
2023/07/18 05:22:21;;;;;;;8.95;3.17;;;;;;;12.35;88.99;101928.53;5088365;28;20030;-69
2023/07/18 05:24:46;;;;;;;8.63;3.60;;;;;;;12.39;89.30;101926.47;5082220;28;20040;-69
2023/07/18 05:27:11;;;;;;;9.40;3.50;;;;;;;12.43;88.36;101926.19;5068524;28;20376;-69
2023/07/18 05:29:37;;;;;;;11.25;3.03;;;;;;;12.48;88.50;101937.69;5068745;28;20040;-69
2023/07/18 05:32:03;;;;;;;5.35;2.90;;;;;;;12.51;88.46;101926.59;5079283;28;20036;-69
2023/07/18 05:34:28;;;;;;;5.55;2.83;;;;;;;12.55;88.37;101932.75;5084405;28;20567;-69
2023/07/18 05:36:53;;;;;;;8.70;3.42;;;;;;;12.60;87.46;101932.44;5068304;28;20158;-69
2023/07/18 05:39:19;;;;;;;6.95;2.95;;;;;;;12.67;87.60;101929.22;5077693;28;20048;-69
2023/07/18 05:41:44;;;;;;;8.63;3.10;;;;;;;12.71;88.26;101930.78;5088346;28;20044;-69
2023/07/18 05:44:10;;;;;;;4.43;2.70;;;;;;;12.77;87.89;101924.03;5081885;28;20081;-69
2023/07/18 05:46:35;;;;;;;7.47;3.45;;;;;;;12.83;87.79;101928.25;5077928;28;20529;-69
2023/07/18 05:49:00;;;;;;;7.18;3.42;;;;;;;12.89;87.86;101930.56;5068368;28;20036;-69
2023/07/18 05:51:26;;;;;;;7.25;3.13;;;;;;;12.95;87.20;101933.78;5066671;28;20090;-69
2023/07/18 05:53:51;;;;;;;9.55;2.85;;;;;;;12.99;87.88;101935.34;5047907;28;20025;-69
2023/07/18 05:56:16;;;;;;;6.65;2.83;;;;;;;13.04;87.85;101940.50;5046897;28;20051;-69
2023/07/18 05:58:42;;;;;;;6.43;3.17;;;;;;;13.09;87.18;101941.06;5056247;28;20420;-69
2023/07/18 06:01:13;;;;;;;6.22;3.70;;;;;;;13.15;87.33;101948.88;5070203;28;20036;-69
2023/07/18 06:03:39;;;;;;;7.50;3.20;;;;;;;13.21;86.91;101939.41;5088189;28;20036;-68
2023/07/18 06:06:05;;;;;;;8.35;3.53;;;;;;;13.27;87.75;101942.63;5057034;28;20028;-69
2023/07/18 06:08:30;;;;;;;6.45;3.30;;;;;;;13.33;87.39;101944.06;5049235;28;20033;-69
2023/07/18 06:10:59;;;;;;;7.55;2.90;;;;;;;13.39;85.93;101938.22;5067872;28;20080;-69
2023/07/18 06:13:24;;;;;;;9.75;3.65;;;;;;;13.46;87.03;101945.00;5072050;28;20031;-69
2023/07/18 06:15:50;;;;;;;7.35;3.58;;;;;;;13.52;86.77;101941.88;5086146;28;20028;-69
2023/07/18 06:18:16;;;;;;;7.18;3.17;;;;;;;13.58;86.70;101945.19;5088084;28;20032;-69
2023/07/18 06:20:43;;;;;;;5.93;3.45;;;;;;;13.62;87.49;101941.25;5073473;28;20047;-68
2023/07/18 06:23:09;;;;;;;9.02;4.25;;;;;;;13.65;87.15;101941.91;5066870;28;20436;-68
2023/07/18 06:25:35;;;;;;;10.63;3.45;;;;;;;13.72;86.59;101939.66;5076577;28;20073;-69
2023/07/18 06:28:02;;;;;;;7.15;3.20;;;;;;;13.77;86.93;101938.34;5068346;28;20044;-69
2023/07/18 06:30:28;;;;;;;7.68;3.03;;;;;;;13.83;86.72;101939.78;5066852;28;20097;-70
2023/07/18 06:32:54;;;;;;;6.07;3.05;;;;;;;13.94;86.25;101936.28;5048213;28;20071;-69
2023/07/18 06:35:19;;;;;;;11.07;3.42;;;;;;;14.01;86.14;101937.63;5057601;28;20103;-69
2023/07/18 06:37:45;;;;;;;7.32;2.70;;;;;;;14.08;85.29;101933.47;5066849;28;20040;-69
2023/07/18 06:40:11;;;;;;;4.43;2.40;;;;;;;14.12;83.97;101937.75;5066472;28;20098;-68
2023/07/18 06:42:37;;;;;;;9.02;2.53;;;;;;;14.21;83.79;101937.09;5074001;28;20035;-69
2023/07/18 06:45:03;;;;;;;6.45;2.42;;;;;;;14.26;84.83;101940.41;5087035;28;20040;-69
2023/07/18 06:47:29;;;;;;;4.63;2.50;;;;;;;14.31;83.24;101934.59;5063655;28;20434;-70
2023/07/18 06:49:54;;;;;;;4.20;2.10;;;;;;;14.36;82.98;101932.44;5060027;28;20032;-69
2023/07/18 06:52:20;;;;;;;5.90;2.00;;;;;;;14.42;82.60;101934.72;5086723;28;20024;-70
2023/07/18 06:54:46;;;;;;;7.47;2.42;;;;;;;14.49;82.42;101935.19;5086811;28;20523;-69
2023/07/18 06:57:12;;;;;;;6.03;1.98;;;;;;;14.53;82.86;101936.72;5083601;28;20109;-69
2023/07/18 06:59:37;;;;;;;7.40;2.28;;;;;;;14.60;83.46;101931.69;5067098;28;20112;-69
2023/07/18 07:02:03;;;;;;;6.40;1.85;;;;;;;14.68;82.99;101932.88;5079491;28;20122;-69
2023/07/18 07:04:29;;;;;;;7.88;2.17;;;;;;;14.76;82.35;101926.84;5083302;28;20040;-69
2023/07/18 07:06:54;;;;;;;4.68;1.65;;;;;;;14.79;81.61;101929.38;5066755;28;20036;-69
2023/07/18 07:09:19;;;;;;;6.88;1.90;;;;;;;14.84;81.63;101935.38;5066642;28;20117;-69
2023/07/18 07:11:45;;;;;;;2.90;1.45;;;;;;;14.90;81.29;101926.72;5066691;28;20097;-69
2023/07/18 07:14:11;;;;;;;3.35;1.40;;;;;;;14.94;80.64;101930.09;5084257;28;20024;-68
2023/07/18 07:16:36;;;;;;;3.28;1.50;;;;;;;14.98;79.66;101932.50;5086021;28;20492;-69
2023/07/18 07:19:02;;;;;;;5.35;1.80;;;;;;;15.08;79.95;101935.44;5087164;28;20066;-69
2023/07/18 07:21:28;;;;;;;3.53;1.60;;;;;;;15.20;78.79;101934.56;5086662;28;20046;-70
2023/07/18 07:23:54;;;;;;;8.38;1.42;;;;;;;15.32;77.85;101932.75;5087077;28;20028;-69
2023/07/18 07:26:19;;;;;;;4.80;1.67;;;;;;;15.43;77.01;101932.78;5083593;28;20035;-69
2023/07/18 07:28:45;;;;;;;5.35;1.75;;;;;;;15.59;77.09;101939.88;5068295;28;20825;-69
2023/07/18 07:31:11;;;;;;;4.95;2.00;;;;;;;15.74;77.40;101936.00;5071719;28;20031;-70
2023/07/18 07:33:36;;;;;;;4.15;1.65;;;;;;;15.87;77.39;101927.69;5087083;28;20396;-69
2023/07/18 07:36:04;;;;;;;9.73;1.92;;;;;;;15.90;76.54;101933.81;5084975;28;20039;-69
2023/07/18 07:38:29;;;;;;;6.07;1.60;;;;;;;15.95;76.07;101927.97;5086577;28;20044;-70
2023/07/18 07:40:54;;;;;;;3.50;1.50;;;;;;;16.03;76.30;101925.50;5086783;28;20143;-69
2023/07/18 07:43:20;;;;;;;4.45;1.65;;;;;;;16.11;76.43;101924.91;5071258;28;20074;-69
2023/07/18 07:45:45;;;;;;;3.58;1.40;;;;;;;16.16;76.00;101925.41;5067827;28;20128;-70
2023/07/18 07:48:10;;;;;;;5.47;1.80;;;;;;;16.21;77.22;101924.03;5065078;28;20090;-69
2023/07/18 07:50:36;;;;;;;5.68;1.70;;;;;;;16.28;75.04;101936.31;5067489;28;20040;-69
2023/07/18 07:53:01;;;;;;;4.05;1.15;;;;;;;16.38;74.52;101930.97;5086266;28;20066;-69
2023/07/18 07:55:27;;;;;;;3.45;1.00;;;;;;;16.46;73.29;101928.47;5086678;28;20105;-68
2023/07/18 07:57:53;;;;;;;3.22;1.27;;;;;;;16.55;73.91;101924.09;5087822;28;20043;-69
2023/07/18 08:00:19;;;;;;;3.97;1.40;;;;;;;16.64;73.85;101920.59;5090601;28;20036;-69
2023/07/18 08:02:45;;;;;;;3.72;1.20;;;;;;;16.77;73.38;101928.75;5070549;28;20025;-69
2023/07/18 08:05:10;;;;;;;4.75;1.60;;;;;;;16.87;72.32;101929.75;5070191;28;20076;-68
2023/07/18 08:07:36;;;;;;;4.70;1.60;;;;;;;17.00;70.69;101925.00;5073064;28;20046;-69
2023/07/18 08:10:03;;;;;;;3.53;1.40;;;;;;;17.42;73.70;101919.69;5090101;28;20039;-69
2023/07/18 08:12:28;;;;;;;3.47;0.88;;;;;;;17.91;71.38;101914.66;5087318;28;20053;-69
2023/07/18 08:14:53;;;;;;;1.85;0.90;;;;;;;18.38;67.07;101917.91;5091030;28;20102;-69
2023/07/18 08:17:19;;;;;;;4.57;1.25;;;;;;;18.92;66.15;101912.09;5073714;28;20117;-69
2023/07/18 08:19:44;;;;;;;2.92;1.10;;;;;;;19.42;64.03;101920.38;5070160;28;20033;-69
2023/07/18 08:22:09;;;;;;;2.03;0.70;;;;;;;19.90;59.37;101913.16;5069145;28;20040;-69
2023/07/18 08:24:35;;;;;;;5.45;1.33;;;;;;;20.36;58.91;101913.25;5070385;28;20032;-69
2023/07/18 08:27:00;;;;;;;4.55;0.80;;;;;;;20.71;55.48;101908.97;5086291;28;20043;-70
2023/07/18 08:29:32;;;;;;;1.90;0.75;;;;;;;21.06;55.19;101904.59;5070552;28;20471;-69
2023/07/18 08:31:58;;;;;;;2.33;0.70;;;;;;;21.38;56.71;101895.84;5081888;28;20210;-69
2023/07/18 08:34:24;;;;;;;1.58;0.70;;;;;;;21.46;53.56;101895.06;5090918;28;20020;-69
2023/07/18 08:36:49;;;;;;;2.65;0.88;;;;;;;21.86;52.31;101897.34;5083660;28;20154;-68
2023/07/18 08:39:15;;;;;;;1.85;0.80;;;;;;;22.31;52.09;101902.78;5069313;28;20052;-69
2023/07/18 08:41:44;;;;;;;3.25;0.60;;;;;;;22.67;52.23;101900.78;5069115;28;20123;-69
2023/07/18 08:44:15;;;;;;;1.83;0.68;;;;;;;23.01;51.56;101896.28;5048390;28;20523;-69
2023/07/18 08:46:42;;;;;;;1.50;0.55;;;;;;;23.60;52.14;101889.69;5063927;28;20072;-69
2023/07/18 08:49:10;;;;;;;2.70;0.80;;;;;;;23.73;48.41;101886.44;5057692;28;20037;-69
2023/07/18 08:51:36;;;;;;;3.65;0.80;;;;;;;23.99;47.72;101883.50;5049409;28;20045;-69
2023/07/18 08:54:01;;;;;;;0.65;0.50;;;;;;;24.50;49.02;101872.19;5061187;28;20442;-68
2023/07/18 08:56:27;;;;;;;4.43;0.90;;;;;;;24.66;47.29;101877.69;5090087;28;20024;-69
2023/07/18 08:58:54;;;;;;;2.78;1.02;;;;;;;24.93;45.43;101873.59;5070885;28;20063;-68
2023/07/18 09:01:20;;;;;;;2.25;0.70;;;;;;;25.15;43.67;101864.47;5075453;28;20089;-68
2023/07/18 09:03:45;;;;;;;2.85;0.95;;;;;;;25.39;47.09;101869.03;5089561;28;20057;-69
2023/07/18 09:06:18;;;;;;;1.75;0.70;;;;;;;25.61;45.06;101867.34;5089147;28;20445;-69
2023/07/18 09:08:44;;;;;;;2.25;0.70;;;;;;;25.73;44.53;101861.31;5087112;28;20477;-69
2023/07/18 09:11:14;;;;;;;1.17;0.60;;;;;;;25.90;43.13;101860.16;5089048;28;20107;-68
2023/07/18 09:13:41;;;;;;;1.90;0.70;;;;;;;25.91;40.94;101854.41;5072161;28;20059;-68
2023/07/18 09:16:21;;;;;;;1.40;0.68;;;;;;;26.22;43.81;101856.22;5073253;28;20039;-69
2023/07/18 09:18:51;;;;;;;2.35;0.65;;;;;;;25.91;43.06;101853.53;5089774;28;20254;-69
2023/07/18 09:21:17;;;;;;;2.78;0.60;;;;;;;26.00;42.33;101852.41;5089073;28;20554;-69
2023/07/18 09:23:44;;;;;;;4.53;0.80;;;;;;;26.09;41.72;101850.41;5071484;28;20032;-68
2023/07/18 09:26:10;;;;;;;1.00;0.68;;;;;;;26.01;41.04;101844.91;5068033;28;20043;-69
2023/07/18 09:28:37;;;;;;;2.10;0.73;;;;;;;26.00;41.06;101841.25;5068595;28;20441;-69
2023/07/18 09:31:03;;;;;;;1.45;0.68;;;;;;;26.15;42.31;101838.50;5071879;28;20078;-69
2023/07/18 09:33:29;;;;;;;3.15;0.60;;;;;;;26.31;40.22;101843.91;5068924;28;20128;-69
2023/07/18 09:36:01;;;;;;;1.95;0.60;;;;;;;26.36;40.24;101833.03;5069256;28;20038;-69
2023/07/18 09:38:27;;;;;;;2.63;0.60;;;;;;;26.71;39.93;101836.16;5069186;28;20032;-69
2023/07/18 09:40:52;;;;;;;1.95;0.82;;;;;;;26.74;40.29;101832.13;5074609;28;20545;-68
2023/07/18 09:43:20;;;;;;;2.58;0.73;;;;;;;26.75;40.30;101833.84;5074345;28;20067;-69
2023/07/18 09:45:46;;;;;;;1.55;0.70;;;;;;;26.90;39.48;101829.97;5068534;28;20040;-68
2023/07/18 09:48:13;;;;;;;1.75;0.57;;;;;;;26.79;40.65;101836.06;5068291;28;20330;-68
2023/07/18 09:50:43;;;;;;;4.80;0.52;;;;;;;26.33;39.94;101841.78;5068330;28;20113;-69
2023/07/18 09:53:11;;;;;;;0.93;0.63;;;;;;;26.31;42.80;101835.53;5068192;28;20051;-69
2023/07/18 09:55:38;;;;;;;2.05;0.80;;;;;;;26.22;40.63;101839.47;5067811;28;20017;-69
2023/07/18 09:58:05;;;;;;;4.20;0.60;;;;;;;26.22;41.99;101839.47;5067934;28;20430;-68
2023/07/18 10:00:32;;;;;;;3.35;0.70;;;;;;;26.38;40.37;101835.63;5067919;28;20024;-69
2023/07/18 10:02:58;;;;;;;2.20;0.60;;;;;;;26.69;44.22;101832.72;5086713;28;20198;-70
2023/07/18 10:05:24;;;;;;;1.20;0.55;;;;;;;26.66;40.04;101822.78;5088663;28;20528;-69
2023/07/18 10:07:50;;;;;;;2.50;0.70;;;;;;;26.68;37.99;101817.03;5075228;28;20043;-68
2023/07/18 10:10:16;;;;;;;1.60;0.70;;;;;;;26.87;39.58;101822.00;5067434;28;20028;-68
2023/07/18 10:12:54;;;;;;;2.30;0.60;;;;;;;27.17;39.91;101810.78;5074887;28;20039;-69
2023/07/18 10:15:20;;;;;;;3.72;0.70;;;;;;;27.34;38.96;101809.50;5088440;28;20074;-68
2023/07/18 10:17:47;;;;;;;3.42;0.80;;;;;;;27.34;38.92;101808.63;5086768;28;20136;-69
2023/07/18 10:20:23;;;;;;;3.50;0.52;;;;;;;27.28;37.44;101803.81;5085456;28;20148;-69
2023/07/18 10:22:57;;;;;;;1.40;0.60;;;;;;;27.41;40.01;101792.78;5067686;28;20492;-67
2023/07/18 10:25:31;;;;;;;3.42;0.60;;;;;;;27.28;39.00;101790.72;5067671;28;20029;-69
2023/07/18 10:27:58;;;;;;;3.10;0.88;;;;;;;26.63;38.33;101786.03;5077336;28;20032;-69
2023/07/18 10:30:35;;;;;;;3.65;0.90;;;;;;;26.42;40.52;101781.19;5088774;28;20023;-69
2023/07/18 10:33:02;;;;;;;3.15;0.70;;;;;;;26.34;38.59;101792.44;5088189;28;20571;-68
2023/07/18 10:35:28;;;;;;;3.80;0.70;;;;;;;26.70;40.24;101789.75;5085005;28;20083;-67
2023/07/18 10:37:56;;;;;;;3.97;1.00;;;;;;;27.08;38.59;101781.19;5087776;28;20059;-68
2023/07/18 10:40:39;;;;;;;2.75;0.70;;;;;;;27.55;40.53;101780.66;5087117;28;20056;-67
2023/07/18 10:43:07;;;;;;;2.08;0.70;;;;;;;27.52;38.88;101771.84;5075384;28;20064;-69
2023/07/18 10:45:40;;;;;;;3.72;0.75;;;;;;;27.51;36.78;101776.53;5066822;28;20044;-69
2023/07/18 10:48:23;;;;;;;1.23;0.57;;;;;;;27.71;39.09;101777.63;5049251;28;20036;-68
2023/07/18 10:50:49;;;;;;;2.03;0.80;;;;;;;27.90;36.54;101770.47;5085318;28;20081;-68
2023/07/18 10:53:19;;;;;;;6.07;0.70;;;;;;;28.15;39.10;101772.81;5087050;28;20032;-69
2023/07/18 10:55:46;;;;;;;1.98;0.60;;;;;;;28.08;39.13;101769.09;5074579;28;20036;-70
2023/07/18 10:58:18;;;;;;;2.20;0.70;;;;;;;28.40;38.11;101760.09;5078042;28;20173;-68
2023/07/18 11:00:44;;;;;;;1.67;0.50;;;;;;;28.66;39.75;101764.09;5083436;28;20535;-68
2023/07/18 11:03:20;;;;;;;2.17;0.95;;;;;;;28.95;36.27;101758.19;5065978;28;20067;-69
2023/07/18 11:05:48;;;;;;;1.58;0.70;;;;;;;29.19;36.68;101762.38;5067023;28;20514;-68
2023/07/18 11:08:27;;;;;;;2.28;0.73;;;;;;;29.28;38.43;101756.56;5070327;28;20120;-68
2023/07/18 11:10:54;;;;;;;2.13;1.13;;;;;;;29.21;35.41;101756.56;5087213;28;20035;-68
2023/07/18 11:13:19;;;;;;;2.50;0.70;;;;;;;29.42;34.63;101756.38;5073625;28;20017;-68
2023/07/18 11:15:44;;;;;;;3.83;0.80;;;;;;;29.31;33.98;101770.16;5067069;28;20120;-68
2023/07/18 11:18:10;;;;;;;3.00;0.68;;;;;;;29.27;30.49;101761.31;5067049;28;20042;-69
2023/07/18 11:20:35;;;;;;;1.88;0.60;;;;;;;29.39;35.32;101762.41;5066783;28;20102;-69